createdAt,value
2022-12-08T00:04:23.500Z,6.75
2022-12-08T00:09:45.637Z,4.25
2022-12-08T00:15:08.105Z,4.65
2022-12-08T00:20:32.385Z,3.45
2022-12-08T00:25:54.233Z,4.30
2022-12-08T00:31:15.933Z,9.98
2022-12-08T00:36:38.057Z,6.53
2022-12-08T00:42:21.027Z,6.00
2022-12-08T00:47:46.710Z,9.82
2022-12-08T00:53:09.700Z,4.93
2022-12-08T00:58:35.346Z,5.05
2022-12-08T01:04:11.338Z,7.13
2022-12-08T01:09:34.058Z,10.30
2022-12-08T01:15:00.768Z,6.25
2022-12-08T01:20:36.155Z,6.72
2022-12-08T01:26:07.027Z,9.85
2022-12-08T01:31:31.910Z,9.95
2022-12-08T01:36:56.956Z,5.78
2022-12-08T01:42:22.785Z,5.53
2022-12-08T01:47:49.858Z,6.70
2022-12-08T01:53:18.238Z,6.90
2022-12-08T01:58:44.736Z,5.20
2022-12-08T02:04:07.297Z,4.97
2022-12-08T02:09:29.417Z,6.15
2022-12-08T02:14:51.169Z,5.93
2022-12-08T02:20:39.096Z,5.75
2022-12-08T02:26:28.916Z,3.35
2022-12-08T02:32:13.221Z,4.32
2022-12-08T02:38:05.758Z,8.02
2022-12-08T02:43:43.730Z,6.97
2022-12-08T02:49:06.868Z,6.30
2022-12-08T02:54:28.988Z,5.93
2022-12-08T03:00:06.097Z,8.60
2022-12-08T03:05:40.058Z,8.30
2022-12-08T03:11:08.087Z,8.15
2022-12-08T03:16:31.633Z,9.10
2022-12-08T03:22:03.838Z,5.70
2022-12-08T03:27:30.175Z,8.35
2022-12-08T03:33:09.698Z,9.35
2022-12-08T03:38:39.748Z,4.80
2022-12-08T03:44:01.675Z,8.18
2022-12-08T03:49:23.656Z,5.10
2022-12-08T03:54:45.648Z,3.80
2022-12-08T04:00:09.978Z,5.07
2022-12-08T04:05:31.957Z,6.35
2022-12-08T04:10:53.978Z,6.47
2022-12-08T04:16:25.457Z,5.38
2022-12-08T04:21:48.131Z,6.65
2022-12-08T04:27:10.280Z,5.88
2022-12-08T04:32:31.931Z,4.28
2022-12-08T04:37:53.848Z,4.93
2022-12-08T04:43:16.018Z,5.22
2022-12-08T04:48:39.495Z,3.83
2022-12-08T04:54:01.339Z,4.13
2022-12-08T04:59:23.519Z,5.63
2022-12-08T05:04:46.127Z,3.47
2022-12-08T05:10:09.319Z,5.93
2022-12-08T05:15:36.035Z,5.32
2022-12-08T05:21:01.154Z,6.03
2022-12-08T05:26:24.117Z,3.65
2022-12-08T05:31:46.234Z,4.15
2022-12-08T05:37:13.356Z,6.97
2022-12-08T05:42:35.743Z,5.60
2022-12-08T05:48:00.659Z,5.55
2022-12-08T05:53:24.061Z,7.47
2022-12-08T05:58:46.628Z,6.35
2022-12-08T06:04:09.858Z,4.68
2022-12-08T06:09:32.437Z,5.18
2022-12-08T06:14:55.299Z,6.38
2022-12-08T06:20:18.157Z,6.10
2022-12-08T06:25:40.168Z,5.00
2022-12-08T06:31:08.968Z,8.32
2022-12-08T06:36:31.588Z,3.90
2022-12-08T06:42:18.719Z,8.68
2022-12-08T06:47:41.581Z,7.95
2022-12-08T06:53:05.851Z,3.67
2022-12-08T06:58:28.007Z,6.32
2022-12-08T07:03:49.888Z,3.63
2022-12-08T07:09:12.068Z,5.05
2022-12-08T07:14:34.318Z,3.75
2022-12-08T07:19:56.577Z,4.13
2022-12-08T07:25:19.936Z,4.72
2022-12-08T07:30:41.894Z,4.45
2022-12-08T07:36:07.694Z,4.90
2022-12-08T07:41:29.399Z,5.25
2022-12-08T07:46:51.338Z,5.93
2022-12-08T07:52:13.348Z,6.43
2022-12-08T07:57:35.495Z,4.90
2022-12-08T08:02:57.611Z,3.63
2022-12-08T08:08:20.147Z,3.60
2022-12-08T08:13:42.111Z,3.80
2022-12-08T08:19:03.988Z,3.40
2022-12-08T08:24:25.926Z,5.30
2022-12-08T08:29:47.890Z,2.45
2022-12-08T08:35:10.402Z,2.55
2022-12-08T08:40:32.820Z,4.15
2022-12-08T08:45:58.698Z,3.92
2022-12-08T08:51:21.140Z,2.50
2022-12-08T08:56:43.149Z,4.30
2022-12-08T09:02:05.192Z,3.22
2022-12-08T09:07:27.710Z,4.88
2022-12-08T09:12:50.684Z,2.97
2022-12-08T09:18:12.630Z,4.30
2022-12-08T09:23:35.826Z,2.13
2022-12-08T09:28:58.751Z,2.47
2022-12-08T09:34:21.361Z,4.15
2022-12-08T09:39:43.341Z,3.42
2022-12-08T09:45:12.867Z,2.42
2022-12-08T09:50:55.851Z,2.13
2022-12-08T09:56:23.821Z,3.35
2022-12-08T10:01:46.514Z,2.30
2022-12-08T10:07:28.459Z,5.25
2022-12-08T10:13:14.125Z,2.58
2022-12-08T10:18:38.440Z,2.80
2022-12-08T10:24:11.100Z,4.18
2022-12-08T10:29:34.086Z,4.15
2022-12-08T10:35:13.439Z,3.65
2022-12-08T10:40:42.326Z,2.97
2022-12-08T10:46:22.850Z,2.90
2022-12-08T10:51:44.673Z,4.00
2022-12-08T10:57:06.692Z,3.67
2022-12-08T11:02:28.544Z,3.35
2022-12-08T11:07:55.614Z,3.42
2022-12-08T11:13:27.125Z,2.22
2022-12-08T11:18:58.233Z,1.90
2022-12-08T11:24:32.295Z,2.22
2022-12-08T11:29:57.551Z,1.80
2022-12-08T11:35:34.464Z,3.25
2022-12-08T11:41:08.448Z,1.50
2022-12-08T11:46:41.061Z,3.05
2022-12-08T11:52:32.252Z,3.83
2022-12-08T11:57:58.400Z,3.33
2022-12-08T12:03:29.151Z,3.83
2022-12-08T12:09:04.169Z,2.28
2022-12-08T12:14:32.304Z,4.45
2022-12-08T12:19:58.296Z,4.07
2022-12-08T12:25:25.818Z,3.72
2022-12-08T12:30:58.969Z,2.40
2022-12-08T12:36:25.523Z,2.28
2022-12-08T12:41:49.373Z,3.33
2022-12-08T12:47:13.853Z,1.67
2022-12-08T12:52:38.019Z,3.75
2022-12-08T12:58:04.355Z,4.38
2022-12-08T13:03:26.135Z,3.72
2022-12-08T13:08:53.973Z,1.73
2022-12-08T13:14:37.823Z,2.33
2022-12-08T13:20:03.353Z,2.70
2022-12-08T13:25:40.882Z,3.25
2022-12-08T13:31:04.589Z,3.08
2022-12-08T13:36:33.429Z,3.03
2022-12-08T13:42:04.523Z,3.15
2022-12-08T13:47:35.062Z,3.28
2022-12-08T13:59:31.306Z,3.85
2022-12-08T14:05:17.658Z,2.22
2022-12-08T14:10:35.812Z,2.40
2022-12-08T14:15:57.584Z,3.28
2022-12-08T14:21:21.472Z,2.22
2022-12-08T14:26:46.913Z,1.83
2022-12-08T14:32:25.712Z,2.80
2022-12-08T14:37:49.687Z,2.63
2022-12-08T14:43:13.006Z,3.42
2022-12-08T14:48:35.381Z,3.72
2022-12-08T14:53:59.066Z,3.50
2022-12-08T14:59:20.915Z,1.95
2022-12-08T15:04:55.512Z,3.28
2022-12-08T15:10:17.523Z,1.92
2022-12-08T15:15:58.667Z,4.95
2022-12-08T15:21:20.485Z,2.45
2022-12-08T15:26:48.462Z,1.23
2022-12-08T15:32:12.265Z,3.20
2022-12-08T15:37:34.235Z,4.55
2022-12-08T15:42:56.611Z,3.72
2022-12-08T15:48:24.915Z,1.83
2022-12-08T15:53:46.857Z,2.20
2022-12-08T15:59:19.442Z,2.15
2022-12-08T16:10:45.453Z,1.50
2022-12-08T16:16:18.318Z,2.35
2022-12-08T16:33:15.550Z,1.73
2022-12-08T16:38:37.811Z,3.30
2022-12-08T16:44:03.499Z,2.75
2022-12-08T16:49:25.640Z,1.92
2022-12-08T16:54:47.755Z,1.67
2022-12-08T17:00:15.457Z,1.77
2022-12-08T17:05:41.319Z,1.90
2022-12-08T17:11:09.779Z,2.58
2022-12-08T17:16:31.480Z,2.38
2022-12-08T17:21:53.290Z,2.35
2022-12-08T17:27:15.322Z,1.67
2022-12-08T17:32:38.987Z,2.30
2022-12-08T17:38:01.105Z,2.63
2022-12-08T17:43:23.279Z,5.00
2022-12-08T17:48:48.374Z,2.65
2022-12-08T17:54:10.410Z,4.63
2022-12-08T17:59:33.515Z,1.75
2022-12-08T18:04:55.598Z,2.30
2022-12-08T18:10:19.120Z,3.20
2022-12-08T18:15:41.416Z,1.10
2022-12-08T18:21:03.847Z,1.25
2022-12-08T18:26:26.720Z,2.03
2022-12-08T18:31:48.589Z,1.95
2022-12-08T18:37:12.290Z,2.55
2022-12-08T18:42:37.266Z,2.08
2022-12-08T18:47:59.250Z,2.25
2022-12-08T18:53:21.178Z,1.60
2022-12-08T18:58:43.138Z,2.45
2022-12-08T19:09:49.258Z,2.03
2022-12-08T19:15:12.612Z,3.45
2022-12-08T19:20:34.669Z,1.00
2022-12-08T19:25:56.845Z,1.45
2022-12-08T19:31:19.234Z,4.57
2022-12-08T19:36:43.010Z,2.65
2022-12-08T19:42:32.083Z,1.92
2022-12-08T19:47:54.397Z,2.33
2022-12-08T19:53:16.658Z,2.55
2022-12-08T19:58:38.559Z,2.35
2022-12-08T20:04:00.678Z,3.20
2022-12-08T20:09:23.740Z,1.20
2022-12-08T20:14:46.264Z,3.10
2022-12-08T20:20:10.469Z,2.63
2022-12-08T20:25:33.068Z,2.55
2022-12-08T20:30:55.008Z,3.90
2022-12-08T20:36:19.525Z,1.63
2022-12-08T20:41:42.623Z,3.05
2022-12-08T20:47:04.519Z,2.03
2022-12-08T20:52:26.162Z,2.20
2022-12-08T20:57:48.294Z,2.40
2022-12-08T21:03:10.544Z,2.00
2022-12-08T21:08:33.031Z,3.00
2022-12-08T21:13:55.217Z,1.95
2022-12-08T21:19:18.824Z,3.35
2022-12-08T21:24:41.536Z,2.22
2022-12-08T21:30:03.767Z,2.28
2022-12-08T21:35:26.462Z,1.85
2022-12-08T21:40:48.847Z,1.95
2022-12-08T21:46:20.728Z,3.35
2022-12-08T21:51:42.815Z,1.23
2022-12-08T21:57:04.942Z,3.15
2022-12-08T23:01:03.412Z,4.97
2022-12-08T23:06:27.909Z,2.65
2022-12-08T23:11:49.890Z,1.90
2022-12-08T23:17:11.801Z,1.73
2022-12-08T23:22:33.893Z,1.38
2022-12-08T23:27:58.837Z,1.35
2022-12-08T23:33:21.181Z,2.90
2022-12-08T23:38:43.414Z,4.40
2022-12-08T23:44:06.016Z,3.13
2022-12-08T23:49:28.197Z,1.00
2022-12-08T23:54:55.106Z,1.33
